sensor_id;sensor_type;location;lat;lon;timestamp;P1;durP1;ratioP1;P2;durP2;ratioP2
29662;SDS011;16578;53.266;7.920;2024-01-27T00:01:42;15.55;;;2.80;;
29662;SDS011;16578;53.266;7.920;2024-01-27T00:04:08;15.85;;;3.35;;
29662;SDS011;16578;53.266;7.920;2024-01-27T00:06:33;17.25;;;4.03;;
29662;SDS011;16578;53.266;7.920;2024-01-27T00:08:59;17.83;;;3.38;;
29662;SDS011;16578;53.266;7.920;2024-01-27T00:11:24;11.75;;;3.22;;
29662;SDS011;16578;53.266;7.920;2024-01-27T00:13:50;18.48;;;2.85;;
29662;SDS011;16578;53.266;7.920;2024-01-27T00:16:16;9.40;;;2.17;;
29662;SDS011;16578;53.266;7.920;2024-01-27T00:18:41;14.07;;;3.20;;
29662;SDS011;16578;53.266;7.920;2024-01-27T00:21:07;17.95;;;3.60;;
29662;SDS011;16578;53.266;7.920;2024-01-27T00:23:32;14.52;;;3.03;;
29662;SDS011;16578;53.266;7.920;2024-01-27T00:25:59;14.05;;;3.17;;
29662;SDS011;16578;53.266;7.920;2024-01-27T00:28:28;13.93;;;3.05;;
29662;SDS011;16578;53.266;7.920;2024-01-27T00:30:54;20.67;;;3.55;;
29662;SDS011;16578;53.266;7.920;2024-01-27T00:33:19;12.43;;;2.85;;
29662;SDS011;16578;53.266;7.920;2024-01-27T00:35:46;22.50;;;3.40;;
29662;SDS011;16578;53.266;7.920;2024-01-27T00:38:12;13.35;;;2.63;;
29662;SDS011;16578;53.266;7.920;2024-01-27T00:40:38;12.60;;;2.88;;
29662;SDS011;16578;53.266;7.920;2024-01-27T00:43:03;20.75;;;4.47;;
29662;SDS011;16578;53.266;7.920;2024-01-27T00:45:29;11.20;;;3.00;;
29662;SDS011;16578;53.266;7.920;2024-01-27T00:47:55;14.00;;;3.22;;
29662;SDS011;16578;53.266;7.920;2024-01-27T00:50:21;15.20;;;2.95;;
29662;SDS011;16578;53.266;7.920;2024-01-27T00:52:47;10.82;;;2.67;;
29662;SDS011;16578;53.266;7.920;2024-01-27T00:55:12;16.08;;;3.03;;
29662;SDS011;16578;53.266;7.920;2024-01-27T00:57:38;17.15;;;3.55;;
29662;SDS011;16578;53.266;7.920;2024-01-27T01:00:07;16.02;;;3.25;;
29662;SDS011;16578;53.266;7.920;2024-01-27T01:02:34;12.30;;;3.17;;
29662;SDS011;16578;53.266;7.920;2024-01-27T01:05:00;11.63;;;2.92;;
29662;SDS011;16578;53.266;7.920;2024-01-27T01:07:26;17.38;;;3.08;;
29662;SDS011;16578;53.266;7.920;2024-01-27T01:09:52;11.43;;;2.88;;
29662;SDS011;16578;53.266;7.920;2024-01-27T01:12:18;11.20;;;3.08;;
29662;SDS011;16578;53.266;7.920;2024-01-27T01:14:43;14.93;;;3.17;;
29662;SDS011;16578;53.266;7.920;2024-01-27T01:17:09;12.13;;;3.03;;
29662;SDS011;16578;53.266;7.920;2024-01-27T01:19:36;17.98;;;3.03;;
29662;SDS011;16578;53.266;7.920;2024-01-27T01:22:03;16.65;;;3.05;;
29662;SDS011;16578;53.266;7.920;2024-01-27T01:24:29;11.60;;;3.08;;
29662;SDS011;16578;53.266;7.920;2024-01-27T01:26:55;15.82;;;2.88;;
29662;SDS011;16578;53.266;7.920;2024-01-27T01:29:20;14.15;;;3.55;;
29662;SDS011;16578;53.266;7.920;2024-01-27T01:31:47;12.57;;;3.65;;
29662;SDS011;16578;53.266;7.920;2024-01-27T01:34:12;20.10;;;4.13;;
29662;SDS011;16578;53.266;7.920;2024-01-27T01:36:38;14.32;;;3.00;;
29662;SDS011;16578;53.266;7.920;2024-01-27T01:39:04;10.60;;;2.45;;
29662;SDS011;16578;53.266;7.920;2024-01-27T01:41:29;18.08;;;2.65;;
29662;SDS011;16578;53.266;7.920;2024-01-27T01:43:55;12.98;;;2.95;;
29662;SDS011;16578;53.266;7.920;2024-01-27T01:46:21;11.82;;;2.90;;
29662;SDS011;16578;53.266;7.920;2024-01-27T01:48:49;11.30;;;2.47;;
29662;SDS011;16578;53.266;7.920;2024-01-27T01:51:15;13.75;;;3.33;;
29662;SDS011;16578;53.266;7.920;2024-01-27T01:53:41;18.80;;;3.13;;
29662;SDS011;16578;53.266;7.920;2024-01-27T01:56:08;19.05;;;2.67;;
29662;SDS011;16578;53.266;7.920;2024-01-27T01:58:33;21.27;;;3.10;;
29662;SDS011;16578;53.266;7.920;2024-01-27T02:00:59;14.70;;;2.75;;
29662;SDS011;16578;53.266;7.920;2024-01-27T02:03:26;16.85;;;2.55;;
29662;SDS011;16578;53.266;7.920;2024-01-27T02:05:52;7.40;;;2.10;;
29662;SDS011;16578;53.266;7.920;2024-01-27T02:08:17;11.50;;;2.50;;
29662;SDS011;16578;53.266;7.920;2024-01-27T02:10:43;13.23;;;2.10;;
29662;SDS011;16578;53.266;7.920;2024-01-27T02:13:18;12.15;;;2.20;;
29662;SDS011;16578;53.266;7.920;2024-01-27T02:15:46;13.95;;;2.80;;
29662;SDS011;16578;53.266;7.920;2024-01-27T02:18:13;15.93;;;2.72;;
29662;SDS011;16578;53.266;7.920;2024-01-27T02:20:38;15.77;;;2.20;;
29662;SDS011;16578;53.266;7.920;2024-01-27T02:23:04;20.23;;;3.00;;
29662;SDS011;16578;53.266;7.920;2024-01-27T02:25:31;14.30;;;3.13;;
29662;SDS011;16578;53.266;7.920;2024-01-27T02:27:56;14.75;;;2.78;;
29662;SDS011;16578;53.266;7.920;2024-01-27T02:30:22;16.27;;;2.63;;
29662;SDS011;16578;53.266;7.920;2024-01-27T02:32:48;13.65;;;3.00;;
29662;SDS011;16578;53.266;7.920;2024-01-27T02:35:13;13.55;;;2.80;;
29662;SDS011;16578;53.266;7.920;2024-01-27T02:37:39;14.13;;;2.50;;
29662;SDS011;16578;53.266;7.920;2024-01-27T02:40:06;14.13;;;2.33;;
29662;SDS011;16578;53.266;7.920;2024-01-27T02:42:32;9.30;;;2.58;;
29662;SDS011;16578;53.266;7.920;2024-01-27T02:44:58;12.27;;;2.30;;
29662;SDS011;16578;53.266;7.920;2024-01-27T02:47:24;9.98;;;2.22;;
29662;SDS011;16578;53.266;7.920;2024-01-27T02:49:49;14.90;;;2.38;;
29662;SDS011;16578;53.266;7.920;2024-01-27T02:52:15;9.52;;;2.47;;
29662;SDS011;16578;53.266;7.920;2024-01-27T02:54:40;13.95;;;3.20;;
29662;SDS011;16578;53.266;7.920;2024-01-27T02:57:06;11.68;;;2.55;;
29662;SDS011;16578;53.266;7.920;2024-01-27T02:59:32;12.98;;;2.60;;
29662;SDS011;16578;53.266;7.920;2024-01-27T03:01:57;9.60;;;2.28;;
29662;SDS011;16578;53.266;7.920;2024-01-27T03:04:23;10.60;;;2.65;;
29662;SDS011;16578;53.266;7.920;2024-01-27T03:06:49;12.70;;;2.33;;
29662;SDS011;16578;53.266;7.920;2024-01-27T03:09:14;17.40;;;2.70;;
29662;SDS011;16578;53.266;7.920;2024-01-27T03:11:40;8.02;;;2.15;;
29662;SDS011;16578;53.266;7.920;2024-01-27T03:14:05;10.85;;;2.67;;
29662;SDS011;16578;53.266;7.920;2024-01-27T03:16:31;17.92;;;2.90;;
29662;SDS011;16578;53.266;7.920;2024-01-27T03:18:57;20.13;;;3.45;;
29662;SDS011;16578;53.266;7.920;2024-01-27T03:21:23;17.10;;;2.78;;
29662;SDS011;16578;53.266;7.920;2024-01-27T03:23:48;16.02;;;3.13;;
29662;SDS011;16578;53.266;7.920;2024-01-27T03:26:14;18.77;;;2.78;;
29662;SDS011;16578;53.266;7.920;2024-01-27T03:28:40;11.18;;;2.83;;
29662;SDS011;16578;53.266;7.920;2024-01-27T03:31:06;15.65;;;3.17;;
29662;SDS011;16578;53.266;7.920;2024-01-27T03:33:31;10.85;;;2.35;;
29662;SDS011;16578;53.266;7.920;2024-01-27T03:35:57;10.38;;;2.38;;
29662;SDS011;16578;53.266;7.920;2024-01-27T03:38:22;12.57;;;2.60;;
29662;SDS011;16578;53.266;7.920;2024-01-27T03:40:48;7.65;;;2.63;;
29662;SDS011;16578;53.266;7.920;2024-01-27T03:43:14;8.63;;;2.47;;
29662;SDS011;16578;53.266;7.920;2024-01-27T03:45:39;9.30;;;2.47;;
29662;SDS011;16578;53.266;7.920;2024-01-27T03:48:05;15.35;;;2.83;;
29662;SDS011;16578;53.266;7.920;2024-01-27T03:50:31;10.43;;;2.30;;
29662;SDS011;16578;53.266;7.920;2024-01-27T03:52:56;8.65;;;2.17;;
29662;SDS011;16578;53.266;7.920;2024-01-27T03:55:22;12.00;;;2.80;;
29662;SDS011;16578;53.266;7.920;2024-01-27T03:57:47;8.85;;;2.33;;
29662;SDS011;16578;53.266;7.920;2024-01-27T04:00:13;13.25;;;2.88;;
29662;SDS011;16578;53.266;7.920;2024-01-27T04:02:39;11.32;;;2.22;;
29662;SDS011;16578;53.266;7.920;2024-01-27T04:05:05;12.98;;;1.80;;
29662;SDS011;16578;53.266;7.920;2024-01-27T04:07:31;8.82;;;2.00;;
29662;SDS011;16578;53.266;7.920;2024-01-27T04:09:56;7.75;;;2.22;;
29662;SDS011;16578;53.266;7.920;2024-01-27T04:12:22;8.00;;;2.38;;
29662;SDS011;16578;53.266;7.920;2024-01-27T04:14:48;9.77;;;2.22;;
29662;SDS011;16578;53.266;7.920;2024-01-27T04:17:13;10.30;;;2.50;;
29662;SDS011;16578;53.266;7.920;2024-01-27T04:19:39;6.32;;;1.90;;
29662;SDS011;16578;53.266;7.920;2024-01-27T04:22:04;13.48;;;2.60;;
29662;SDS011;16578;53.266;7.920;2024-01-27T04:24:30;8.27;;;2.78;;
29662;SDS011;16578;53.266;7.920;2024-01-27T04:26:55;13.77;;;2.50;;
29662;SDS011;16578;53.266;7.920;2024-01-27T04:29:22;8.35;;;2.45;;
29662;SDS011;16578;53.266;7.920;2024-01-27T04:31:47;9.70;;;1.98;;
29662;SDS011;16578;53.266;7.920;2024-01-27T04:34:13;5.72;;;1.83;;
29662;SDS011;16578;53.266;7.920;2024-01-27T04:36:38;10.32;;;2.38;;
29662;SDS011;16578;53.266;7.920;2024-01-27T04:39:04;9.65;;;1.98;;
29662;SDS011;16578;53.266;7.920;2024-01-27T04:41:30;16.38;;;2.53;;
29662;SDS011;16578;53.266;7.920;2024-01-27T04:43:55;12.70;;;2.70;;
29662;SDS011;16578;53.266;7.920;2024-01-27T04:46:22;11.77;;;1.90;;
29662;SDS011;16578;53.266;7.920;2024-01-27T04:48:47;11.82;;;2.10;;
29662;SDS011;16578;53.266;7.920;2024-01-27T04:51:13;9.40;;;2.10;;
29662;SDS011;16578;53.266;7.920;2024-01-27T04:53:39;8.45;;;2.28;;
29662;SDS011;16578;53.266;7.920;2024-01-27T04:56:04;9.70;;;2.38;;
29662;SDS011;16578;53.266;7.920;2024-01-27T04:58:33;8.10;;;2.45;;
29662;SDS011;16578;53.266;7.920;2024-01-27T05:00:59;18.88;;;2.33;;
29662;SDS011;16578;53.266;7.920;2024-01-27T05:03:26;12.40;;;2.45;;
29662;SDS011;16578;53.266;7.920;2024-01-27T05:05:51;9.88;;;2.15;;
29662;SDS011;16578;53.266;7.920;2024-01-27T05:08:17;10.98;;;2.17;;
29662;SDS011;16578;53.266;7.920;2024-01-27T05:10:43;9.75;;;2.45;;
29662;SDS011;16578;53.266;7.920;2024-01-27T05:13:08;11.32;;;2.05;;
29662;SDS011;16578;53.266;7.920;2024-01-27T05:15:34;14.02;;;2.70;;
29662;SDS011;16578;53.266;7.920;2024-01-27T05:17:59;9.35;;;1.90;;
29662;SDS011;16578;53.266;7.920;2024-01-27T05:20:25;9.25;;;2.20;;
29662;SDS011;16578;53.266;7.920;2024-01-27T05:22:51;10.75;;;2.05;;
29662;SDS011;16578;53.266;7.920;2024-01-27T05:25:17;16.35;;;2.28;;
29662;SDS011;16578;53.266;7.920;2024-01-27T05:27:42;8.80;;;1.90;;
29662;SDS011;16578;53.266;7.920;2024-01-27T05:30:08;7.60;;;1.77;;
29662;SDS011;16578;53.266;7.920;2024-01-27T05:32:34;14.15;;;3.03;;
29662;SDS011;16578;53.266;7.920;2024-01-27T05:35:00;6.05;;;2.22;;
29662;SDS011;16578;53.266;7.920;2024-01-27T05:37:25;13.45;;;2.30;;
29662;SDS011;16578;53.266;7.920;2024-01-27T05:39:51;13.65;;;2.28;;
29662;SDS011;16578;53.266;7.920;2024-01-27T05:42:16;15.40;;;2.72;;
29662;SDS011;16578;53.266;7.920;2024-01-27T05:44:42;7.35;;;2.17;;
29662;SDS011;16578;53.266;7.920;2024-01-27T05:47:07;14.40;;;2.10;;
29662;SDS011;16578;53.266;7.920;2024-01-27T05:49:35;14.18;;;2.33;;
29662;SDS011;16578;53.266;7.920;2024-01-27T05:52:01;13.02;;;3.25;;
29662;SDS011;16578;53.266;7.920;2024-01-27T05:54:27;9.20;;;2.17;;
29662;SDS011;16578;53.266;7.920;2024-01-27T05:56:52;11.10;;;2.45;;
29662;SDS011;16578;53.266;7.920;2024-01-27T05:59:18;10.45;;;2.88;;
29662;SDS011;16578;53.266;7.920;2024-01-27T06:01:43;11.43;;;2.28;;
29662;SDS011;16578;53.266;7.920;2024-01-27T06:04:09;12.75;;;2.80;;
29662;SDS011;16578;53.266;7.920;2024-01-27T06:06:38;14.55;;;2.13;;
29662;SDS011;16578;53.266;7.920;2024-01-27T06:09:04;13.95;;;2.15;;
29662;SDS011;16578;53.266;7.920;2024-01-27T06:11:30;11.35;;;2.20;;
29662;SDS011;16578;53.266;7.920;2024-01-27T06:13:55;7.78;;;2.22;;
29662;SDS011;16578;53.266;7.920;2024-01-27T06:16:23;10.38;;;2.33;;
29662;SDS011;16578;53.266;7.920;2024-01-27T06:18:48;16.20;;;3.72;;
29662;SDS011;16578;53.266;7.920;2024-01-27T06:21:14;7.93;;;2.00;;
29662;SDS011;16578;53.266;7.920;2024-01-27T06:23:40;8.35;;;1.98;;
29662;SDS011;16578;53.266;7.920;2024-01-27T06:26:08;10.32;;;2.88;;
29662;SDS011;16578;53.266;7.920;2024-01-27T06:28:35;13.88;;;2.20;;
29662;SDS011;16578;53.266;7.920;2024-01-27T06:31:02;13.00;;;2.40;;
29662;SDS011;16578;53.266;7.920;2024-01-27T06:33:29;13.50;;;2.53;;
29662;SDS011;16578;53.266;7.920;2024-01-27T06:35:54;9.07;;;2.35;;
29662;SDS011;16578;53.266;7.920;2024-01-27T06:38:20;8.82;;;2.25;;
29662;SDS011;16578;53.266;7.920;2024-01-27T06:40:46;9.82;;;2.75;;
29662;SDS011;16578;53.266;7.920;2024-01-27T06:43:12;13.88;;;2.58;;
29662;SDS011;16578;53.266;7.920;2024-01-27T06:45:38;10.90;;;2.22;;
29662;SDS011;16578;53.266;7.920;2024-01-27T06:48:05;11.65;;;2.15;;
29662;SDS011;16578;53.266;7.920;2024-01-27T06:50:31;6.38;;;2.10;;
29662;SDS011;16578;53.266;7.920;2024-01-27T06:52:57;16.60;;;3.08;;
29662;SDS011;16578;53.266;7.920;2024-01-27T06:55:23;7.88;;;1.90;;
29662;SDS011;16578;53.266;7.920;2024-01-27T06:57:48;8.73;;;2.53;;
29662;SDS011;16578;53.266;7.920;2024-01-27T07:00:14;19.20;;;2.65;;
29662;SDS011;16578;53.266;7.920;2024-01-27T07:02:40;7.45;;;2.35;;
29662;SDS011;16578;53.266;7.920;2024-01-27T07:05:09;9.77;;;2.83;;
29662;SDS011;16578;53.266;7.920;2024-01-27T07:07:35;9.32;;;2.53;;
29662;SDS011;16578;53.266;7.920;2024-01-27T07:10:01;12.07;;;2.60;;
29662;SDS011;16578;53.266;7.920;2024-01-27T07:12:27;7.43;;;2.65;;
29662;SDS011;16578;53.266;7.920;2024-01-27T07:14:52;8.30;;;2.90;;
29662;SDS011;16578;53.266;7.920;2024-01-27T07:17:19;6.53;;;1.92;;
29662;SDS011;16578;53.266;7.920;2024-01-27T07:19:45;9.55;;;2.00;;
29662;SDS011;16578;53.266;7.920;2024-01-27T07:22:11;8.82;;;2.38;;
29662;SDS011;16578;53.266;7.920;2024-01-27T07:24:37;11.32;;;1.92;;
29662;SDS011;16578;53.266;7.920;2024-01-27T07:27:03;10.30;;;2.40;;
29662;SDS011;16578;53.266;7.920;2024-01-27T07:29:31;5.68;;;2.30;;
29662;SDS011;16578;53.266;7.920;2024-01-27T07:31:56;15.68;;;2.42;;
29662;SDS011;16578;53.266;7.920;2024-01-27T07:34:22;13.27;;;2.42;;
29662;SDS011;16578;53.266;7.920;2024-01-27T07:36:48;8.95;;;2.10;;
29662;SDS011;16578;53.266;7.920;2024-01-27T07:39:14;14.52;;;2.45;;
29662;SDS011;16578;53.266;7.920;2024-01-27T07:41:40;9.00;;;2.20;;
29662;SDS011;16578;53.266;7.920;2024-01-27T07:44:08;10.77;;;2.65;;
29662;SDS011;16578;53.266;7.920;2024-01-27T07:46:38;6.78;;;2.25;;
29662;SDS011;16578;53.266;7.920;2024-01-27T07:49:04;11.80;;;2.92;;
29662;SDS011;16578;53.266;7.920;2024-01-27T07:51:31;11.57;;;2.92;;
29662;SDS011;16578;53.266;7.920;2024-01-27T07:53:57;8.32;;;2.17;;
29662;SDS011;16578;53.266;7.920;2024-01-27T07:56:23;8.63;;;2.35;;
29662;SDS011;16578;53.266;7.920;2024-01-27T07:58:48;10.65;;;2.63;;
29662;SDS011;16578;53.266;7.920;2024-01-27T08:01:14;10.75;;;2.90;;
29662;SDS011;16578;53.266;7.920;2024-01-27T08:03:41;10.75;;;2.53;;
29662;SDS011;16578;53.266;7.920;2024-01-27T08:06:10;13.05;;;2.67;;
29662;SDS011;16578;53.266;7.920;2024-01-27T08:08:39;15.15;;;2.75;;
29662;SDS011;16578;53.266;7.920;2024-01-27T08:11:05;10.35;;;2.38;;
29662;SDS011;16578;53.266;7.920;2024-01-27T08:13:32;10.25;;;2.33;;
29662;SDS011;16578;53.266;7.920;2024-01-27T08:15:57;8.98;;;2.42;;
29662;SDS011;16578;53.266;7.920;2024-01-27T08:18:24;10.43;;;2.78;;
29662;SDS011;16578;53.266;7.920;2024-01-27T08:20:49;11.93;;;3.03;;
29662;SDS011;16578;53.266;7.920;2024-01-27T08:23:15;10.40;;;2.60;;
29662;SDS011;16578;53.266;7.920;2024-01-27T08:25:40;8.48;;;2.55;;
29662;SDS011;16578;53.266;7.920;2024-01-27T08:28:06;9.95;;;3.17;;
29662;SDS011;16578;53.266;7.920;2024-01-27T08:30:32;14.65;;;2.75;;
29662;SDS011;16578;53.266;7.920;2024-01-27T08:32:57;15.63;;;3.72;;
29662;SDS011;16578;53.266;7.920;2024-01-27T08:35:23;15.65;;;2.88;;
29662;SDS011;16578;53.266;7.920;2024-01-27T08:37:48;10.48;;;2.60;;
29662;SDS011;16578;53.266;7.920;2024-01-27T08:40:14;12.98;;;3.38;;
29662;SDS011;16578;53.266;7.920;2024-01-27T08:42:42;12.93;;;2.57;;
29662;SDS011;16578;53.266;7.920;2024-01-27T08:45:07;13.35;;;2.90;;
29662;SDS011;16578;53.266;7.920;2024-01-27T08:47:33;13.13;;;2.67;;
29662;SDS011;16578;53.266;7.920;2024-01-27T08:49:59;15.88;;;3.10;;
29662;SDS011;16578;53.266;7.920;2024-01-27T08:52:24;15.27;;;3.15;;
29662;SDS011;16578;53.266;7.920;2024-01-27T08:54:50;17.40;;;3.42;;
29662;SDS011;16578;53.266;7.920;2024-01-27T08:57:15;13.10;;;3.05;;
29662;SDS011;16578;53.266;7.920;2024-01-27T08:59:41;7.38;;;2.45;;
29662;SDS011;16578;53.266;7.920;2024-01-27T09:02:06;10.52;;;3.42;;
29662;SDS011;16578;53.266;7.920;2024-01-27T09:04:32;9.40;;;2.55;;
29662;SDS011;16578;53.266;7.920;2024-01-27T09:06:58;10.10;;;2.78;;
29662;SDS011;16578;53.266;7.920;2024-01-27T09:09:23;10.05;;;2.95;;
29662;SDS011;16578;53.266;7.920;2024-01-27T09:11:49;10.07;;;2.92;;
29662;SDS011;16578;53.266;7.920;2024-01-27T09:14:15;10.98;;;2.92;;
29662;SDS011;16578;53.266;7.920;2024-01-27T09:16:40;11.18;;;3.30;;
29662;SDS011;16578;53.266;7.920;2024-01-27T09:19:06;15.02;;;3.17;;
29662;SDS011;16578;53.266;7.920;2024-01-27T09:21:33;17.70;;;3.22;;
29662;SDS011;16578;53.266;7.920;2024-01-27T09:23:58;13.25;;;3.20;;
29662;SDS011;16578;53.266;7.920;2024-01-27T09:26:26;9.03;;;3.27;;
29662;SDS011;16578;53.266;7.920;2024-01-27T09:28:51;10.43;;;3.70;;
29662;SDS011;16578;53.266;7.920;2024-01-27T09:31:22;13.30;;;3.10;;
29662;SDS011;16578;53.266;7.920;2024-01-27T09:33:49;11.10;;;2.80;;
29662;SDS011;16578;53.266;7.920;2024-01-27T09:36:16;13.95;;;3.90;;
29662;SDS011;16578;53.266;7.920;2024-01-27T09:38:42;13.20;;;3.47;;
29662;SDS011;16578;53.266;7.920;2024-01-27T09:41:08;11.70;;;3.35;;
29662;SDS011;16578;53.266;7.920;2024-01-27T09:43:34;14.50;;;3.22;;
29662;SDS011;16578;53.266;7.920;2024-01-27T09:46:02;7.35;;;3.17;;
29662;SDS011;16578;53.266;7.920;2024-01-27T09:48:28;15.57;;;4.07;;
29662;SDS011;16578;53.266;7.920;2024-01-27T09:50:55;12.18;;;2.63;;
29662;SDS011;16578;53.266;7.920;2024-01-27T09:55:49;14.18;;;3.60;;
29662;SDS011;16578;53.266;7.920;2024-01-27T09:58:15;16.85;;;4.38;;
29662;SDS011;16578;53.266;7.920;2024-01-27T10:00:41;17.33;;;4.35;;
29662;SDS011;16578;53.266;7.920;2024-01-27T10:03:07;10.82;;;4.10;;
29662;SDS011;16578;53.266;7.920;2024-01-27T10:05:33;14.82;;;4.70;;
29662;SDS011;16578;53.266;7.920;2024-01-27T10:08:00;10.35;;;3.90;;
29662;SDS011;16578;53.266;7.920;2024-01-27T10:10:26;15.18;;;4.78;;
29662;SDS011;16578;53.266;7.920;2024-01-27T10:12:52;18.05;;;5.35;;
29662;SDS011;16578;53.266;7.920;2024-01-27T10:15:21;17.55;;;4.97;;
29662;SDS011;16578;53.266;7.920;2024-01-27T10:17:47;16.92;;;5.55;;
29662;SDS011;16578;53.266;7.920;2024-01-27T10:20:13;16.27;;;5.30;;
29662;SDS011;16578;53.266;7.920;2024-01-27T10:22:44;13.38;;;4.45;;
29662;SDS011;16578;53.266;7.920;2024-01-27T10:25:10;13.23;;;4.90;;
29662;SDS011;16578;53.266;7.920;2024-01-27T10:27:36;13.60;;;5.15;;
29662;SDS011;16578;53.266;7.920;2024-01-27T10:30:03;16.90;;;5.43;;
29662;SDS011;16578;53.266;7.920;2024-01-27T10:32:29;12.88;;;4.43;;
29662;SDS011;16578;53.266;7.920;2024-01-27T10:35:04;13.73;;;4.70;;
29662;SDS011;16578;53.266;7.920;2024-01-27T10:37:33;14.48;;;5.30;;
29662;SDS011;16578;53.266;7.920;2024-01-27T10:40:06;11.68;;;4.15;;
29662;SDS011;16578;53.266;7.920;2024-01-27T10:42:36;17.15;;;5.05;;
29662;SDS011;16578;53.266;7.920;2024-01-27T10:45:02;13.65;;;4.50;;
29662;SDS011;16578;53.266;7.920;2024-01-27T10:47:29;15.52;;;4.75;;
29662;SDS011;16578;53.266;7.920;2024-01-27T10:49:56;19.55;;;5.22;;
29662;SDS011;16578;53.266;7.920;2024-01-27T10:52:32;17.60;;;5.55;;
29662;SDS011;16578;53.266;7.920;2024-01-27T10:54:58;13.65;;;5.47;;
29662;SDS011;16578;53.266;7.920;2024-01-27T10:57:25;13.80;;;5.00;;
29662;SDS011;16578;53.266;7.920;2024-01-27T10:59:52;16.13;;;5.88;;
29662;SDS011;16578;53.266;7.920;2024-01-27T11:02:19;15.82;;;6.05;;
29662;SDS011;16578;53.266;7.920;2024-01-27T11:04:47;11.65;;;5.25;;
29662;SDS011;16578;53.266;7.920;2024-01-27T11:07:13;15.50;;;6.30;;
29662;SDS011;16578;53.266;7.920;2024-01-27T11:09:39;13.15;;;5.28;;
29662;SDS011;16578;53.266;7.920;2024-01-27T11:12:06;14.48;;;5.78;;
29662;SDS011;16578;53.266;7.920;2024-01-27T11:14:32;13.73;;;6.15;;
29662;SDS011;16578;53.266;7.920;2024-01-27T11:16:58;13.88;;;5.88;;
29662;SDS011;16578;53.266;7.920;2024-01-27T11:19:24;15.95;;;5.88;;
29662;SDS011;16578;53.266;7.920;2024-01-27T11:21:59;17.02;;;5.63;;
29662;SDS011;16578;53.266;7.920;2024-01-27T11:29:29;18.65;;;5.97;;
29662;SDS011;16578;53.266;7.920;2024-01-27T11:31:57;15.90;;;4.20;;
29662;SDS011;16578;53.266;7.920;2024-01-27T11:34:24;15.40;;;5.07;;
29662;SDS011;16578;53.266;7.920;2024-01-27T11:36:50;14.43;;;6.13;;
29662;SDS011;16578;53.266;7.920;2024-01-27T11:39:30;12.07;;;4.85;;
29662;SDS011;16578;53.266;7.920;2024-01-27T11:42:09;12.18;;;5.10;;
29662;SDS011;16578;53.266;7.920;2024-01-27T11:44:38;16.27;;;5.32;;
29662;SDS011;16578;53.266;7.920;2024-01-27T11:47:04;17.92;;;5.28;;
29662;SDS011;16578;53.266;7.920;2024-01-27T11:49:38;13.55;;;4.63;;
29662;SDS011;16578;53.266;7.920;2024-01-27T11:52:05;13.07;;;4.18;;
29662;SDS011;16578;53.266;7.920;2024-01-27T11:54:31;17.02;;;4.93;;
29662;SDS011;16578;53.266;7.920;2024-01-27T11:56:57;14.68;;;4.63;;
29662;SDS011;16578;53.266;7.920;2024-01-27T11:59:23;12.07;;;3.88;;
29662;SDS011;16578;53.266;7.920;2024-01-27T12:01:49;11.63;;;3.70;;
29662;SDS011;16578;53.266;7.920;2024-01-27T12:04:14;13.70;;;3.97;;
29662;SDS011;16578;53.266;7.920;2024-01-27T12:06:41;13.43;;;4.53;;
29662;SDS011;16578;53.266;7.920;2024-01-27T12:09:08;14.30;;;5.07;;
29662;SDS011;16578;53.266;7.920;2024-01-27T12:11:37;13.18;;;4.25;;
29662;SDS011;16578;53.266;7.920;2024-01-27T12:14:06;18.52;;;3.78;;
29662;SDS011;16578;53.266;7.920;2024-01-27T12:16:32;11.00;;;4.20;;
29662;SDS011;16578;53.266;7.920;2024-01-27T12:18:58;9.65;;;4.57;;
29662;SDS011;16578;53.266;7.920;2024-01-27T12:21:24;10.48;;;3.72;;
29662;SDS011;16578;53.266;7.920;2024-01-27T12:26:16;13.80;;;4.13;;
29662;SDS011;16578;53.266;7.920;2024-01-27T12:28:41;16.52;;;5.15;;
29662;SDS011;16578;53.266;7.920;2024-01-27T12:31:11;9.38;;;3.80;;
29662;SDS011;16578;53.266;7.920;2024-01-27T12:33:36;13.70;;;4.10;;
29662;SDS011;16578;53.266;7.920;2024-01-27T12:36:02;16.27;;;4.28;;
29662;SDS011;16578;53.266;7.920;2024-01-27T12:38:32;13.60;;;4.80;;
29662;SDS011;16578;53.266;7.920;2024-01-27T12:40:58;14.18;;;5.15;;
29662;SDS011;16578;53.266;7.920;2024-01-27T12:43:24;10.10;;;4.45;;
29662;SDS011;16578;53.266;7.920;2024-01-27T12:45:49;13.38;;;4.13;;
29662;SDS011;16578;53.266;7.920;2024-01-27T12:48:15;15.13;;;4.55;;
29662;SDS011;16578;53.266;7.920;2024-01-27T12:50:41;9.13;;;3.78;;
29662;SDS011;16578;53.266;7.920;2024-01-27T12:53:07;41.55;;;18.23;;
29662;SDS011;16578;53.266;7.920;2024-01-27T12:55:32;22.60;;;8.85;;
29662;SDS011;16578;53.266;7.920;2024-01-27T12:57:58;16.50;;;6.70;;
29662;SDS011;16578;53.266;7.920;2024-01-27T13:00:24;14.15;;;4.82;;
29662;SDS011;16578;53.266;7.920;2024-01-27T13:02:49;17.38;;;5.30;;
29662;SDS011;16578;53.266;7.920;2024-01-27T13:05:15;10.63;;;4.20;;
29662;SDS011;16578;53.266;7.920;2024-01-27T13:07:40;9.93;;;3.90;;
29662;SDS011;16578;53.266;7.920;2024-01-27T13:10:07;12.75;;;4.22;;
29662;SDS011;16578;53.266;7.920;2024-01-27T13:12:33;14.55;;;4.45;;
29662;SDS011;16578;53.266;7.920;2024-01-27T13:14:58;10.68;;;4.07;;
29662;SDS011;16578;53.266;7.920;2024-01-27T13:17:24;13.43;;;4.68;;
29662;SDS011;16578;53.266;7.920;2024-01-27T13:19:49;14.32;;;3.78;;
29662;SDS011;16578;53.266;7.920;2024-01-27T13:22:15;13.98;;;3.53;;
29662;SDS011;16578;53.266;7.920;2024-01-27T13:24:41;20.95;;;4.47;;
29662;SDS011;16578;53.266;7.920;2024-01-27T13:27:07;11.45;;;3.97;;
29662;SDS011;16578;53.266;7.920;2024-01-27T13:29:33;14.73;;;4.13;;
29662;SDS011;16578;53.266;7.920;2024-01-27T13:31:59;13.43;;;4.07;;
29662;SDS011;16578;53.266;7.920;2024-01-27T13:34:26;20.90;;;3.55;;
29662;SDS011;16578;53.266;7.920;2024-01-27T13:39:21;16.75;;;3.97;;
29662;SDS011;16578;53.266;7.920;2024-01-27T13:41:46;9.13;;;3.65;;
29662;SDS011;16578;53.266;7.920;2024-01-27T13:44:12;10.98;;;3.35;;
29662;SDS011;16578;53.266;7.920;2024-01-27T13:46:38;14.05;;;4.43;;
29662;SDS011;16578;53.266;7.920;2024-01-27T13:49:03;20.83;;;4.13;;
29662;SDS011;16578;53.266;7.920;2024-01-27T13:51:29;17.83;;;4.43;;
29662;SDS011;16578;53.266;7.920;2024-01-27T13:53:54;16.80;;;3.60;;
29662;SDS011;16578;53.266;7.920;2024-01-27T13:56:20;10.25;;;4.07;;
29662;SDS011;16578;53.266;7.920;2024-01-27T13:58:46;12.57;;;4.82;;
29662;SDS011;16578;53.266;7.920;2024-01-27T14:01:11;11.20;;;3.70;;
29662;SDS011;16578;53.266;7.920;2024-01-27T14:03:37;14.05;;;4.60;;
29662;SDS011;16578;53.266;7.920;2024-01-27T14:06:03;13.75;;;4.65;;
29662;SDS011;16578;53.266;7.920;2024-01-27T14:08:29;14.35;;;4.00;;
29662;SDS011;16578;53.266;7.920;2024-01-27T14:10:55;14.57;;;3.80;;
29662;SDS011;16578;53.266;7.920;2024-01-27T14:13:21;13.77;;;4.18;;
29662;SDS011;16578;53.266;7.920;2024-01-27T14:15:47;12.48;;;4.07;;
29662;SDS011;16578;53.266;7.920;2024-01-27T14:18:12;11.63;;;4.43;;
29662;SDS011;16578;53.266;7.920;2024-01-27T14:20:45;20.17;;;5.05;;
29662;SDS011;16578;53.266;7.920;2024-01-27T14:23:11;12.65;;;3.83;;
29662;SDS011;16578;53.266;7.920;2024-01-27T14:25:37;15.30;;;4.00;;
29662;SDS011;16578;53.266;7.920;2024-01-27T14:28:03;14.68;;;4.82;;
29662;SDS011;16578;53.266;7.920;2024-01-27T14:30:32;12.65;;;3.80;;
29662;SDS011;16578;53.266;7.920;2024-01-27T14:32:57;12.75;;;3.65;;
29662;SDS011;16578;53.266;7.920;2024-01-27T14:35:23;10.05;;;3.17;;
29662;SDS011;16578;53.266;7.920;2024-01-27T14:37:50;10.07;;;3.58;;
29662;SDS011;16578;53.266;7.920;2024-01-27T14:40:16;16.60;;;4.50;;
29662;SDS011;16578;53.266;7.920;2024-01-27T14:42:43;10.85;;;3.55;;
29662;SDS011;16578;53.266;7.920;2024-01-27T14:45:11;13.27;;;3.90;;